Whitt, Texas
Current Conditions -  °F | °C
As of 9:53 PM on Wednesday 22 Oct 2014 (Local Time) from KMWL Reporting Station
Broken Clouds Broken Clouds  
Wind Chill: 69°   Ceiling: 12000
Heat Index: 69°   Visibility: 7mi
Dew Point: 60°   Wind: 6mph
Humidity: 73%   Direction: 140°SE
Pressure: 30.09"   Gusts: NA
Location:  32.96°N, 98.02°W
Report Text: KMWL 230253Z AUTO 14005KT 7SM BKN120 21/16 A3009 RMK AO2 RAE22 SLP182 P0000 60000 T02060156 53006
Loading
Personal Weather Stations






























Interactive Weather Map
Tropical Storm Tracking
New forecast layout! Learn more

10-Day Weather Forecast

Advertisements
Track Severe Weather on mobile